createdAt,value
2023-08-29T00:01:05.740Z,20.93
2023-08-29T00:04:07.987Z,20.94
2023-08-29T00:07:10.226Z,20.92
2023-08-29T00:10:12.642Z,20.92
2023-08-29T00:13:14.744Z,21.01
2023-08-29T00:16:17.944Z,20.97
2023-08-29T00:19:22.616Z,21.09
2023-08-29T00:22:24.824Z,21.18
2023-08-29T00:25:26.891Z,21.17
2023-08-29T00:28:28.997Z,21.21
2023-08-29T00:31:31.158Z,21.21
2023-08-29T00:34:33.293Z,21.20
2023-08-29T00:37:35.399Z,21.11
2023-08-29T00:40:37.562Z,21.03
2023-08-29T00:43:39.898Z,20.94
2023-08-29T00:46:42.655Z,20.85
2023-08-29T00:49:45.016Z,20.76
2023-08-29T00:52:48.185Z,20.69
2023-08-29T00:55:50.904Z,20.57
2023-08-29T00:58:54.186Z,20.52
2023-08-29T01:01:56.481Z,20.52
2023-08-29T01:04:59.272Z,20.44
2023-08-29T01:08:02.587Z,20.50
2023-08-29T01:11:07.713Z,20.44
2023-08-29T01:14:15.619Z,20.46
2023-08-29T01:17:27.173Z,20.49
2023-08-29T01:20:32.065Z,20.48
2023-08-29T01:23:44.415Z,20.48
2023-08-29T01:26:47.709Z,20.50
2023-08-29T01:29:50.397Z,20.49
2023-08-29T01:32:53.502Z,20.44
2023-08-29T01:35:55.707Z,20.28
2023-08-29T01:38:57.780Z,20.46
2023-08-29T01:41:59.845Z,20.36
2023-08-29T01:45:02.035Z,20.38
2023-08-29T01:48:05.647Z,20.41
2023-08-29T01:51:08.315Z,20.31
2023-08-29T01:54:10.641Z,20.29
2023-08-29T01:57:15.413Z,20.20
2023-08-29T02:00:17.879Z,20.18
2023-08-29T02:03:23.071Z,20.20
2023-08-29T02:06:25.171Z,20.10
2023-08-29T02:09:27.292Z,20.08
2023-08-29T02:12:29.409Z,20.10
2023-08-29T02:15:31.547Z,20.13
2023-08-29T02:18:33.633Z,20.12
2023-08-29T02:21:35.775Z,20.16
2023-08-29T02:24:37.834Z,20.17
2023-08-29T02:27:39.995Z,20.18
2023-08-29T02:30:42.209Z,20.18
2023-08-29T02:33:44.594Z,20.20
2023-08-29T02:36:46.766Z,20.24
2023-08-29T02:39:48.844Z,20.19
2023-08-29T02:42:50.962Z,20.22
2023-08-29T02:45:52.967Z,20.18
2023-08-29T02:48:55.092Z,20.15
2023-08-29T02:51:58.059Z,20.16
2023-08-29T02:55:00.336Z,20.19
2023-08-29T02:58:02.493Z,20.16
2023-08-29T03:01:07.574Z,20.14
2023-08-29T03:04:09.762Z,20.12
2023-08-29T03:07:11.870Z,20.17
2023-08-29T03:10:13.944Z,20.18
2023-08-29T03:13:16.164Z,20.16
2023-08-29T03:16:20.957Z,20.21
2023-08-29T03:19:23.086Z,20.11
2023-08-29T03:22:25.229Z,20.16
2023-08-29T03:25:27.359Z,20.11
2023-08-29T03:28:29.640Z,20.06
2023-08-29T03:31:31.871Z,20.04
2023-08-29T03:34:34.756Z,20.04
2023-08-29T03:37:36.933Z,19.98
2023-08-29T03:40:38.987Z,19.92
2023-08-29T03:43:41.084Z,19.92
2023-08-29T03:46:43.306Z,19.89
2023-08-29T03:49:45.384Z,19.85
2023-08-29T03:52:47.476Z,19.82
2023-08-29T03:55:49.522Z,19.81
2023-08-29T03:58:51.632Z,19.76
2023-08-29T04:01:53.684Z,19.76
2023-08-29T04:05:12.298Z,19.80
2023-08-29T04:08:14.715Z,19.83
2023-08-29T04:11:16.797Z,19.79
2023-08-29T04:14:18.857Z,19.78
2023-08-29T04:17:20.938Z,19.79
2023-08-29T04:20:24.270Z,19.83
2023-08-29T04:23:27.205Z,19.86
2023-08-29T04:26:30.052Z,19.86
2023-08-29T04:29:32.179Z,19.87
2023-08-29T04:32:35.708Z,19.85
2023-08-29T04:35:37.861Z,19.83
2023-08-29T04:38:40.040Z,19.70
2023-08-29T04:41:42.135Z,19.67
2023-08-29T04:44:46.484Z,19.52
2023-08-29T04:47:50.287Z,19.46
2023-08-29T04:50:52.383Z,19.48
2023-08-29T04:53:54.455Z,19.45
2023-08-29T04:56:56.649Z,19.42
2023-08-29T04:59:58.813Z,19.46
2023-08-29T05:03:01.132Z,19.45
2023-08-29T05:06:03.506Z,19.47
2023-08-29T05:09:10.206Z,19.51
2023-08-29T05:12:12.356Z,19.46
2023-08-29T05:15:14.573Z,19.39
2023-08-29T05:18:16.774Z,19.36
2023-08-29T05:21:19.043Z,19.35
2023-08-29T05:24:21.179Z,19.47
2023-08-29T05:27:23.293Z,19.47
2023-08-29T05:30:25.553Z,19.53
2023-08-29T05:33:27.766Z,19.58
2023-08-29T05:36:29.872Z,19.57
2023-08-29T05:39:32.054Z,19.44
2023-08-29T05:42:34.213Z,19.42
2023-08-29T05:45:36.484Z,19.44
2023-08-29T05:48:38.894Z,19.43
2023-08-29T05:51:41.088Z,19.56
2023-08-29T05:54:44.576Z,19.63
2023-08-29T05:57:46.710Z,19.60
2023-08-29T06:00:49.753Z,19.62
2023-08-29T06:03:52.005Z,19.71
2023-08-29T06:06:55.455Z,19.83
2023-08-29T06:09:57.537Z,19.86
2023-08-29T06:12:59.886Z,19.87
2023-08-29T06:16:02.003Z,19.97
2023-08-29T06:19:04.019Z,20.10
2023-08-29T06:22:06.219Z,20.16
2023-08-29T06:25:08.973Z,20.29
2023-08-29T06:28:11.127Z,20.47
2023-08-29T06:31:13.243Z,20.64
2023-08-29T06:34:15.395Z,20.84
2023-08-29T06:37:17.516Z,21.00
2023-08-29T06:40:19.673Z,21.17
2023-08-29T06:43:21.909Z,21.36
2023-08-29T06:46:24.437Z,21.63
2023-08-29T06:49:26.659Z,21.77
2023-08-29T06:52:28.820Z,21.87
2023-08-29T06:55:33.979Z,21.92
2023-08-29T06:58:36.180Z,22.06
2023-08-29T07:01:41.470Z,22.39
2023-08-29T07:04:43.658Z,22.72
2023-08-29T07:07:45.680Z,23.15
2023-08-29T07:10:49.509Z,23.54
2023-08-29T07:13:51.879Z,24.06
2023-08-29T07:20:09.960Z,24.27
2023-08-29T07:23:12.179Z,24.70
2023-08-29T07:26:14.254Z,24.71
2023-08-29T07:29:16.434Z,25.33
2023-08-29T07:32:19.035Z,25.81
2023-08-29T07:35:21.104Z,26.43
2023-08-29T07:38:23.308Z,26.59
2023-08-29T07:41:25.456Z,26.41
2023-08-29T07:44:27.679Z,26.64
2023-08-29T07:47:29.920Z,26.25
2023-08-29T07:50:32.153Z,26.30
2023-08-29T07:53:34.260Z,26.24
2023-08-29T07:56:36.354Z,26.19
2023-08-29T07:59:38.501Z,26.87
2023-08-29T08:02:40.838Z,26.53
2023-08-29T08:05:43.010Z,26.62
2023-08-29T08:08:45.104Z,27.35
2023-08-29T08:11:47.808Z,27.15
2023-08-29T08:14:51.916Z,27.17
2023-08-29T08:17:54.040Z,27.32
2023-08-29T08:20:56.328Z,28.00
2023-08-29T08:23:58.345Z,27.45
2023-08-29T08:27:00.519Z,27.68
2023-08-29T08:30:03.071Z,28.21
2023-08-29T08:33:06.397Z,28.22
2023-08-29T08:36:09.125Z,28.82
2023-08-29T08:39:11.651Z,29.22
2023-08-29T08:42:16.404Z,28.94
2023-08-29T08:45:20.607Z,29.60
2023-08-29T08:48:22.960Z,29.92
2023-08-29T08:51:28.288Z,29.30
2023-08-29T08:54:30.541Z,29.01
2023-08-29T08:57:33.285Z,28.25
2023-08-29T09:00:35.451Z,28.60
2023-08-29T09:03:37.556Z,28.67
2023-08-29T09:06:39.814Z,27.81
2023-08-29T09:09:41.917Z,29.33
2023-08-29T09:12:49.726Z,28.02
2023-08-29T09:15:52.011Z,28.65
2023-08-29T09:18:54.136Z,28.77
2023-08-29T09:21:57.009Z,28.74
2023-08-29T09:25:04.367Z,28.74
2023-08-29T09:28:12.049Z,28.87
2023-08-29T09:31:15.697Z,27.46
2023-08-29T09:34:44.402Z,29.35
2023-08-29T09:37:54.618Z,29.03
2023-08-29T09:40:56.833Z,27.95
2023-08-29T09:43:59.128Z,29.68
2023-08-29T09:47:01.468Z,30.86
2023-08-29T09:50:04.412Z,32.29
2023-08-29T09:53:07.204Z,31.80
2023-08-29T09:56:11.332Z,31.14
2023-08-29T09:59:18.360Z,30.02
2023-08-29T10:02:22.368Z,29.27
2023-08-29T10:05:33.705Z,30.28
2023-08-29T10:08:44.936Z,31.44
2023-08-29T10:11:54.977Z,31.05
2023-08-29T10:14:58.782Z,31.20
2023-08-29T10:18:01.153Z,30.44
2023-08-29T10:21:05.281Z,30.55
2023-08-29T10:24:08.907Z,30.23
2023-08-29T10:27:11.606Z,31.20
2023-08-29T10:30:13.995Z,31.58
2023-08-29T10:33:16.519Z,32.50
2023-08-29T10:36:18.813Z,30.56
2023-08-29T10:39:20.987Z,29.41
2023-08-29T10:42:23.102Z,28.82
2023-08-29T10:45:44.676Z,27.72
2023-08-29T10:48:47.514Z,26.98
2023-08-29T10:52:09.705Z,26.78
2023-08-29T10:55:23.800Z,26.70
2023-08-29T10:58:36.176Z,27.01
2023-08-29T11:01:40.766Z,29.53
2023-08-29T11:04:55.775Z,30.04
2023-08-29T11:08:23.447Z,30.99
2023-08-29T11:11:25.756Z,31.15
2023-08-29T11:14:54.915Z,31.70
2023-08-29T11:18:33.817Z,31.36
2023-08-29T11:21:36.001Z,31.99
2023-08-29T11:24:38.226Z,32.92
2023-08-29T11:27:40.587Z,34.76
2023-08-29T11:30:44.907Z,34.96
2023-08-29T11:33:48.174Z,35.08
2023-08-29T11:36:52.774Z,33.92
2023-08-29T11:39:56.815Z,33.24
2023-08-29T11:43:26.042Z,33.37
2023-08-29T11:46:23.181Z,32.80
2023-08-29T11:49:26.507Z,31.51
2023-08-29T11:52:28.663Z,30.10
2023-08-29T11:55:33.154Z,29.46
2023-08-29T11:58:36.706Z,29.24
2023-08-29T12:01:38.835Z,29.06
2023-08-29T12:04:42.663Z,28.39
2023-08-29T12:07:45.429Z,27.67
2023-08-29T12:10:53.376Z,28.30
2023-08-29T12:14:06.681Z,30.43
2023-08-29T12:17:09.257Z,31.38
2023-08-29T12:20:17.080Z,30.76
2023-08-29T12:23:31.349Z,30.64
2023-08-29T12:26:33.730Z,29.95
2023-08-29T12:29:35.865Z,30.05
2023-08-29T12:32:37.923Z,30.20
2023-08-29T12:35:40.348Z,30.80
2023-08-29T12:38:42.463Z,30.31
2023-08-29T12:41:44.781Z,30.46
2023-08-29T12:44:47.020Z,30.94
2023-08-29T12:47:49.456Z,30.98
2023-08-29T12:50:51.569Z,30.47
2023-08-29T12:53:53.725Z,30.27
2023-08-29T12:56:56.428Z,30.62
2023-08-29T12:59:58.519Z,30.17
2023-08-29T13:03:01.557Z,29.86
2023-08-29T13:06:04.102Z,29.32
2023-08-29T13:09:06.355Z,29.81
2023-08-29T13:12:08.950Z,29.78
2023-08-29T13:15:13.742Z,29.47
2023-08-29T13:18:15.799Z,28.67
2023-08-29T13:21:17.865Z,27.90
2023-08-29T13:24:20.034Z,26.74
2023-08-29T13:27:22.165Z,26.03
2023-08-29T13:30:26.968Z,25.57
2023-08-29T13:33:29.039Z,24.96
2023-08-29T13:36:32.642Z,25.47
2023-08-29T13:39:34.741Z,25.29
2023-08-29T13:42:37.306Z,24.98
2023-08-29T13:45:39.639Z,26.40
2023-08-29T13:48:42.113Z,27.41
2023-08-29T13:51:46.617Z,27.43
2023-08-29T13:54:48.815Z,26.88
2023-08-29T13:57:51.317Z,26.98
2023-08-29T14:00:54.963Z,27.21
2023-08-29T14:03:57.773Z,27.18
2023-08-29T14:07:00.277Z,26.23
2023-08-29T14:10:02.528Z,25.13
2023-08-29T14:13:05.017Z,24.92
2023-08-29T14:16:07.601Z,24.36
2023-08-29T14:19:11.318Z,24.22
2023-08-29T14:22:13.736Z,23.82
2023-08-29T14:25:15.866Z,23.35
2023-08-29T14:28:18.174Z,22.83
2023-08-29T14:31:24.570Z,22.97
2023-08-29T14:34:27.717Z,22.41
2023-08-29T14:37:29.834Z,22.19
2023-08-29T14:40:32.294Z,22.31
2023-08-29T14:43:34.910Z,21.99
2023-08-29T14:46:37.369Z,21.53
2023-08-29T14:49:40.072Z,21.37
2023-08-29T14:52:42.535Z,21.11
2023-08-29T14:55:45.128Z,20.58
2023-08-29T14:58:47.988Z,19.91
2023-08-29T15:01:50.546Z,19.62
2023-08-29T15:04:53.331Z,19.44
2023-08-29T15:07:55.411Z,18.71
2023-08-29T15:10:58.098Z,17.99
2023-08-29T15:14:00.509Z,17.70
2023-08-29T15:17:03.364Z,17.60
2023-08-29T15:20:11.257Z,17.54
2023-08-29T15:23:14.664Z,17.26
2023-08-29T15:26:16.918Z,16.83
2023-08-29T15:29:19.434Z,17.01
2023-08-29T15:32:21.895Z,17.06
2023-08-29T15:35:24.496Z,17.21
2023-08-29T15:38:27.611Z,17.22
2023-08-29T15:41:30.393Z,17.03
2023-08-29T15:44:34.594Z,16.87
2023-08-29T15:47:37.831Z,16.83
2023-08-29T15:50:40.543Z,16.85
2023-08-29T15:53:43.005Z,16.77
2023-08-29T15:56:45.730Z,16.82
2023-08-29T15:59:48.749Z,16.81
2023-08-29T16:05:53.824Z,16.85
2023-08-29T16:08:58.546Z,16.73
2023-08-29T16:12:02.549Z,16.77
2023-08-29T16:15:05.419Z,16.77
2023-08-29T16:18:08.201Z,16.75
2023-08-29T16:21:11.335Z,16.68
2023-08-29T16:24:13.876Z,16.58
2023-08-29T16:27:17.040Z,16.62
2023-08-29T16:30:19.211Z,16.57
2023-08-29T16:33:21.744Z,16.49
2023-08-29T16:36:24.756Z,16.43
2023-08-29T16:39:31.826Z,16.46
2023-08-29T16:42:36.825Z,16.40
2023-08-29T16:45:39.164Z,16.59
2023-08-29T16:48:41.579Z,16.63
2023-08-29T16:51:43.691Z,16.77
2023-08-29T16:54:46.445Z,16.72
2023-08-29T16:57:49.194Z,16.52
2023-08-29T17:00:51.492Z,16.51
2023-08-29T17:03:54.311Z,16.41
2023-08-29T17:06:56.557Z,16.42
2023-08-29T17:10:01.184Z,16.40
2023-08-29T17:13:03.791Z,16.33
2023-08-29T17:16:06.760Z,16.29
2023-08-29T17:19:11.448Z,16.30
2023-08-29T17:22:16.595Z,16.15
2023-08-29T17:25:19.818Z,16.13
2023-08-29T17:28:24.250Z,16.05
2023-08-29T17:31:26.903Z,15.97
2023-08-29T17:34:30.290Z,16.12
2023-08-29T17:37:38.791Z,15.95
2023-08-29T17:40:42.416Z,16.02
2023-08-29T17:43:47.438Z,16.00
2023-08-29T17:46:51.506Z,15.94
2023-08-29T17:49:55.604Z,15.94
2023-08-29T17:52:58.130Z,15.89
2023-08-29T17:56:00.613Z,15.80
2023-08-29T17:59:06.201Z,15.88
2023-08-29T18:02:08.398Z,15.89
2023-08-29T18:05:13.252Z,15.89
2023-08-29T18:08:17.287Z,15.88
2023-08-29T18:11:20.363Z,15.89
2023-08-29T18:14:23.040Z,15.84
2023-08-29T18:17:26.402Z,15.88
2023-08-29T18:20:29.698Z,15.87
2023-08-29T18:23:33.005Z,15.89
2023-08-29T18:26:36.204Z,15.79
2023-08-29T18:29:39.326Z,15.78
2023-08-29T18:32:42.680Z,15.71
2023-08-29T18:35:47.098Z,15.79
2023-08-29T18:38:50.765Z,15.81
2023-08-29T18:41:54.309Z,15.70
2023-08-29T18:44:57.921Z,15.64
2023-08-29T18:48:00.782Z,15.72
2023-08-29T18:51:04.274Z,15.64
2023-08-29T18:54:07.086Z,15.54
2023-08-29T18:57:11.016Z,15.56
2023-08-29T19:00:14.687Z,15.54
2023-08-29T19:03:20.106Z,15.57
2023-08-29T19:06:23.349Z,15.61
2023-08-29T19:09:26.174Z,15.58
2023-08-29T19:12:28.962Z,15.62
2023-08-29T19:15:32.249Z,15.61
2023-08-29T19:18:37.972Z,15.53
2023-08-29T19:21:42.403Z,15.59
2023-08-29T19:24:47.106Z,15.58
2023-08-29T19:27:50.688Z,15.55
2023-08-29T19:30:56.089Z,15.53
2023-08-29T19:33:58.666Z,15.57
2023-08-29T19:37:02.263Z,15.53
2023-08-29T19:40:06.565Z,15.67
2023-08-29T19:43:10.193Z,15.73
2023-08-29T19:46:13.789Z,15.69
2023-08-29T19:49:18.876Z,15.58
2023-08-29T19:52:21.736Z,15.56
2023-08-29T19:55:26.184Z,15.59
2023-08-29T19:58:29.286Z,15.59
2023-08-29T20:01:33.036Z,15.62
2023-08-29T20:04:35.708Z,15.61
2023-08-29T20:07:38.945Z,15.64
2023-08-29T20:10:44.724Z,15.70
2023-08-29T20:13:48.007Z,15.74
2023-08-29T20:16:53.964Z,15.80
2023-08-29T20:19:57.286Z,15.81
2023-08-29T20:23:00.629Z,15.80
2023-08-29T20:26:03.253Z,15.84
2023-08-29T20:29:05.953Z,15.86
2023-08-29T20:32:08.767Z,15.84
2023-08-29T20:35:12.206Z,15.82
2023-08-29T20:38:15.488Z,15.84
2023-08-29T20:41:18.471Z,15.85
2023-08-29T20:44:21.005Z,15.75
2023-08-29T20:47:23.464Z,15.70
2023-08-29T20:50:26.529Z,15.68
2023-08-29T20:53:35.590Z,15.63
2023-08-29T20:56:38.002Z,15.63
2023-08-29T20:59:40.956Z,15.56
2023-08-29T21:02:43.314Z,15.61
2023-08-29T21:05:50.002Z,15.58
2023-08-29T21:08:52.233Z,15.56
2023-08-29T21:11:57.773Z,15.64
2023-08-29T21:14:59.957Z,15.65
2023-08-29T21:18:02.147Z,15.57
2023-08-29T21:21:04.390Z,15.68
2023-08-29T21:24:06.813Z,15.59
2023-08-29T21:27:09.424Z,15.55
2023-08-29T21:30:12.028Z,15.59
2023-08-29T21:33:15.060Z,15.63
2023-08-29T21:36:17.245Z,15.57
2023-08-29T21:39:19.321Z,15.62
2023-08-29T21:42:21.552Z,15.59
2023-08-29T21:45:25.603Z,15.52
2023-08-29T21:48:29.871Z,15.50
2023-08-29T21:51:32.051Z,15.49
2023-08-29T21:54:34.225Z,15.51
2023-08-29T21:57:36.254Z,15.50
2023-08-29T22:00:39.010Z,15.50
2023-08-29T22:03:42.536Z,15.53
2023-08-29T22:06:44.751Z,15.53
2023-08-29T22:09:46.924Z,15.49
2023-08-29T22:12:49.485Z,15.51
2023-08-29T22:15:52.404Z,15.50
2023-08-29T22:18:54.536Z,15.48
2023-08-29T22:21:56.725Z,15.50
2023-08-29T22:24:58.841Z,15.49
2023-08-29T22:28:00.992Z,15.50
2023-08-29T22:31:03.314Z,15.50
2023-08-29T22:34:05.677Z,15.52
2023-08-29T22:37:07.742Z,15.47
2023-08-29T22:40:10.426Z,15.42
2023-08-29T22:43:12.531Z,15.37
2023-08-29T22:46:14.759Z,15.27
2023-08-29T22:49:17.262Z,15.29
2023-08-29T22:52:19.469Z,15.25
2023-08-29T22:55:25.900Z,15.24
2023-08-29T22:58:29.054Z,15.20
2023-08-29T23:01:31.431Z,15.22
2023-08-29T23:04:52.295Z,15.22
2023-08-29T23:07:54.477Z,15.21
2023-08-29T23:10:56.694Z,15.22
2023-08-29T23:13:58.810Z,15.20
2023-08-29T23:17:00.970Z,15.20
2023-08-29T23:20:09.180Z,15.20
2023-08-29T23:23:11.323Z,15.24
2023-08-29T23:26:13.466Z,15.20
2023-08-29T23:29:15.670Z,15.21
2023-08-29T23:32:18.570Z,15.24
2023-08-29T23:35:21.718Z,15.24
2023-08-29T23:38:23.761Z,15.23
2023-08-29T23:41:27.054Z,15.23
2023-08-29T23:44:29.177Z,15.24
2023-08-29T23:47:31.555Z,15.26
2023-08-29T23:50:33.823Z,15.27
2023-08-29T23:53:36.531Z,15.24
2023-08-29T23:56:38.718Z,15.25
2023-08-29T23:59:40.880Z,15.14
